Time;durP1;ratioP1;P1;durP2;ratioP2;P2;SDS_P1;SDS_P2;PMS_P1;PMS_P2;Temp;Humidity;BMP_temperature;BMP_pressure;BME280_temperature;BME280_humidity;BME280_pressure;Samples;Min_cycle;Max_cycle;Signal;HPM_P1;HPM_P2
2021/08/02 00:00:27;;;;;;;1.50;1.40;;;16.80;99.90;;;;;;5020099;28;20399;-75
2021/08/02 00:03:01;;;;;;;1.35;1.25;;;16.80;99.90;;;;;;5000631;28;20458;-75
2021/08/02 00:05:26;;;;;;;1.60;1.50;;;16.80;99.90;;;;;;5023276;28;20754;-75
2021/08/02 00:08:00;;;;;;;1.73;1.63;;;16.70;99.90;;;;;;4998691;28;20407;-76
2021/08/02 00:10:34;;;;;;;1.65;1.55;;;16.60;99.90;;;;;;5008347;28;20403;-75
2021/08/02 00:13:01;;;;;;;1.58;1.48;;;16.60;99.90;;;;;;4991519;28;20417;-75
2021/08/02 00:15:27;;;;;;;1.52;1.42;;;16.60;99.90;;;;;;5017396;28;21137;-76
2021/08/02 00:17:52;;;;;;;1.60;1.50;;;16.50;99.90;;;;;;5013627;28;20461;-75
2021/08/02 00:20:21;;;;;;;1.48;1.38;;;16.50;99.90;;;;;;5006148;28;20387;-76
2021/08/02 00:22:46;;;;;;;1.45;1.35;;;16.50;99.90;;;;;;5006003;28;20406;-75
2021/08/02 00:25:12;;;;;;;1.50;1.40;;;16.40;99.90;;;;;;5001762;28;20412;-76
2021/08/02 00:27:38;;;;;;;1.50;1.40;;;16.40;99.90;;;;;;5004740;28;20430;-76
2021/08/02 00:30:05;;;;;;;1.40;1.30;;;16.40;99.90;;;;;;5024464;28;20388;-76
2021/08/02 00:32:32;;;;;;;1.45;1.35;;;16.40;99.90;;;;;;5020963;28;20387;-76
2021/08/02 00:34:58;;;;;;;1.40;1.30;;;16.30;99.90;;;;;;5006420;28;20393;-76
2021/08/02 00:37:39;;;;;;;1.45;1.35;;;16.30;99.90;;;;;;5000226;28;20425;-76
2021/08/02 00:40:10;;;;;;;2.70;1.65;;;16.20;99.90;;;;;;5019800;28;20387;-75
2021/08/02 00:43:03;;;;;;;1.10;1.10;;;16.10;99.90;;;;;;4994690;28;20990;-75
2021/08/02 00:45:31;;;;;;;1.50;1.40;;;16.10;99.90;;;;;;4999252;28;20744;-76
2021/08/02 00:48:10;;;;;;;2.00;1.15;;;16.10;99.90;;;;;;5005115;28;20398;-75
2021/08/02 00:50:38;;;;;;;1.40;1.30;;;16.10;99.90;;;;;;5022324;28;20471;-75
2021/08/02 00:53:05;;;;;;;1.42;1.33;;;16.00;99.90;;;;;;5005002;28;20602;-75
2021/08/02 00:55:33;;;;;;;1.27;1.25;;;16.00;99.90;;;;;;5005479;28;20502;-75
2021/08/02 00:58:01;;;;;;;1.42;1.33;;;16.00;99.90;;;;;;5005620;28;20410;-75
2021/08/02 01:00:27;;;;;;;1.20;1.20;;;15.90;99.90;;;;;;4983181;28;21918;-76
2021/08/02 01:02:54;;;;;;;1.13;1.13;;;15.90;99.90;;;;;;5009904;28;20413;-75
2021/08/02 01:05:21;;;;;;;1.02;1.02;;;15.90;99.90;;;;;;5009300;28;20430;-76
2021/08/02 01:07:50;;;;;;;1.20;1.20;;;15.90;99.90;;;;;;4992659;28;20410;-75
2021/08/02 01:10:17;;;;;;;1.20;1.20;;;15.90;99.90;;;;;;5004603;28;20393;-76
2021/08/02 01:12:46;;;;;;;1.33;1.30;;;15.80;99.90;;;;;;4980376;28;20433;-75
2021/08/02 01:15:13;;;;;;;1.10;1.10;;;15.80;99.90;;;;;;4971637;28;20406;-75
2021/08/02 01:17:39;;;;;;;1.25;1.15;;;15.80;99.90;;;;;;5008897;28;20418;-75
2021/08/02 01:20:06;;;;;;;1.25;1.25;;;15.80;99.90;;;;;;5009528;28;20436;-75
2021/08/02 01:22:35;;;;;;;1.23;1.20;;;15.70;99.90;;;;;;5001977;28;20403;-77
2021/08/02 01:25:38;;;;;;;1.30;1.20;;;15.70;99.90;;;;;;4990755;28;20504;-75
2021/08/02 01:28:14;;;;;;;1.27;1.15;;;15.70;99.90;;;;;;5024458;28;20506;-75
2021/08/02 01:30:47;;;;;;;1.27;1.20;;;15.70;99.90;;;;;;5024966;28;20496;-75
2021/08/02 01:33:17;;;;;;;1.35;1.25;;;15.60;99.90;;;;;;5002806;28;20407;-75
2021/08/02 01:35:43;;;;;;;1.10;1.10;;;15.50;99.90;;;;;;5001895;28;20414;-75
2021/08/02 01:38:12;;;;;;;1.25;1.15;;;15.50;99.90;;;;;;5008223;28;20434;-77
2021/08/02 01:40:37;;;;;;;0.90;0.90;;;15.50;99.90;;;;;;5008849;28;20439;-76
2021/08/02 01:43:05;;;;;;;1.10;1.10;;;15.50;99.90;;;;;;5012900;28;20405;-75
2021/08/02 01:45:58;;;;;;;1.02;1.02;;;15.50;99.90;;;;;;5001909;28;20482;-76
2021/08/02 01:48:46;;;;;;;1.65;1.20;;;15.50;99.90;;;;;;5013957;28;20391;-75
2021/08/02 01:51:16;;;;;;;1.10;1.10;;;15.50;99.90;;;;;;5020601;28;20506;-75
2021/08/02 01:53:54;;;;;;;1.10;1.10;;;15.50;99.90;;;;;;5007890;28;20965;-76
2021/08/02 01:56:23;;;;;;;1.10;1.10;;;15.50;99.90;;;;;;5006884;28;20490;-76
2021/08/02 01:59:08;;;;;;;1.30;1.20;;;15.50;99.90;;;;;;4997753;28;20395;-76
2021/08/02 02:01:42;;;;;;;0.90;0.90;;;15.50;99.90;;;;;;5009190;28;20407;-75
2021/08/02 02:04:09;;;;;;;1.10;1.10;;;15.50;99.90;;;;;;5005282;28;21126;-76
2021/08/02 02:06:40;;;;;;;1.17;1.08;;;15.40;99.90;;;;;;4998670;28;20397;-76
2021/08/02 02:09:07;;;;;;;1.35;1.30;;;15.40;99.90;;;;;;5035025;28;20488;-76
2021/08/02 02:11:37;;;;;;;1.20;1.20;;;15.40;99.90;;;;;;5007521;28;21020;-76
2021/08/02 02:14:13;;;;;;;1.33;1.17;;;15.40;99.90;;;;;;5004394;28;20404;-75
2021/08/02 02:16:43;;;;;;;1.10;1.10;;;15.40;99.90;;;;;;5005402;28;20412;-75
2021/08/02 02:19:09;;;;;;;1.30;1.20;;;15.40;99.90;;;;;;4994730;28;20385;-75
2021/08/02 02:21:34;;;;;;;1.20;1.20;;;15.30;99.90;;;;;;4998153;28;20936;-75
2021/08/02 02:24:05;;;;;;;1.00;1.00;;;15.30;99.90;;;;;;4988994;28;20781;-75
2021/08/02 02:26:33;;;;;;;1.60;1.20;;;15.30;99.90;;;;;;4987698;28;20408;-75
2021/08/02 02:29:03;;;;;;;1.33;1.33;;;15.30;99.90;;;;;;5017144;28;20403;-75
2021/08/02 02:31:30;;;;;;;1.38;1.27;;;15.20;99.90;;;;;;5003913;28;20413;-76
2021/08/02 02:33:59;;;;;;;1.23;1.23;;;15.20;99.90;;;;;;5010941;28;20399;-75
2021/08/02 02:36:26;;;;;;;1.00;1.00;;;15.10;99.90;;;;;;5003618;28;20508;-75
2021/08/02 02:38:53;;;;;;;1.02;1.02;;;15.10;99.90;;;;;;5002132;28;20407;-75
2021/08/02 02:41:20;;;;;;;1.55;1.45;;;15.10;99.90;;;;;;5024325;28;20406;-75
2021/08/02 02:43:49;;;;;;;1.15;1.15;;;15.00;99.90;;;;;;5007710;28;20392;-76
2021/08/02 02:46:16;;;;;;;1.25;1.25;;;14.90;99.90;;;;;;5005722;28;20772;-75
2021/08/02 02:48:43;;;;;;;1.15;1.15;;;14.90;99.90;;;;;;5022962;28;20391;-75
2021/08/02 02:51:10;;;;;;;1.45;1.35;;;14.90;99.90;;;;;;5002223;28;20401;-75
2021/08/02 02:53:35;;;;;;;1.73;1.63;;;14.80;99.90;;;;;;5016666;28;20399;-75
2021/08/02 02:56:08;;;;;;;1.42;1.33;;;14.70;99.90;;;;;;4998384;28;20440;-76
2021/08/02 02:58:35;;;;;;;1.60;1.50;;;14.70;99.90;;;;;;4983284;28;20948;-76
2021/08/02 03:01:02;;;;;;;1.50;1.40;;;14.60;99.90;;;;;;4962759;28;21056;-75
2021/08/02 03:03:27;;;;;;;1.15;1.15;;;14.70;99.90;;;;;;5019142;28;20948;-75
2021/08/02 03:05:54;;;;;;;1.45;1.35;;;14.70;99.90;;;;;;5007279;28;20395;-75
2021/08/02 03:08:22;;;;;;;1.48;1.40;;;14.60;99.90;;;;;;4999096;28;20392;-75
2021/08/02 03:10:49;;;;;;;1.55;1.45;;;14.60;99.90;;;;;;5006932;28;20466;-76
2021/08/02 03:13:14;;;;;;;1.30;1.30;;;14.60;99.90;;;;;;5010887;28;20861;-75
2021/08/02 03:15:40;;;;;;;1.60;1.50;;;14.60;99.90;;;;;;4999021;28;20540;-75
2021/08/02 03:18:05;;;;;;;1.70;1.60;;;14.60;99.90;;;;;;5022715;28;20960;-75
2021/08/02 03:20:31;;;;;;;1.73;1.63;;;14.70;99.90;;;;;;5023192;28;20395;-75
2021/08/02 03:23:18;;;;;;;1.77;1.67;;;14.60;99.90;;;;;;4989839;28;20402;-75
2021/08/02 03:25:57;;;;;;;1.70;1.60;;;14.60;99.90;;;;;;5023273;28;21222;-75
2021/08/02 03:28:30;;;;;;;1.92;1.67;;;14.60;99.90;;;;;;5006441;28;20585;-75
2021/08/02 03:30:57;;;;;;;1.60;1.50;;;14.70;99.90;;;;;;5006153;28;20399;-75
2021/08/02 03:33:28;;;;;;;2.05;1.58;;;14.70;99.90;;;;;;4991052;28;20391;-75
2021/08/02 03:35:54;;;;;;;1.60;1.50;;;14.70;99.90;;;;;;5020526;28;20409;-75
2021/08/02 03:38:20;;;;;;;1.70;1.60;;;14.80;99.90;;;;;;5003081;28;20393;-75
2021/08/02 03:40:46;;;;;;;1.50;1.40;;;14.80;99.90;;;;;;5035520;28;20430;-75
2021/08/02 03:43:11;;;;;;;1.43;1.33;;;14.80;99.90;;;;;;5006521;28;20446;-75
2021/08/02 03:45:41;;;;;;;1.60;1.50;;;14.90;99.90;;;;;;5033349;28;20415;-75
2021/08/02 03:48:06;;;;;;;1.60;1.50;;;14.90;99.90;;;;;;5002775;28;20387;-75
2021/08/02 03:50:32;;;;;;;1.53;1.43;;;15.00;99.90;;;;;;5005421;28;20392;-75
2021/08/02 03:52:58;;;;;;;1.80;1.70;;;15.00;99.90;;;;;;5012487;28;20415;-75
2021/08/02 03:55:24;;;;;;;1.60;1.50;;;15.00;99.90;;;;;;5003834;28;20433;-75
2021/08/02 03:57:50;;;;;;;1.75;1.65;;;15.00;99.90;;;;;;5013474;28;20926;-75
2021/08/02 04:00:21;;;;;;;1.77;1.67;;;15.00;99.90;;;;;;5021505;28;20477;-75
2021/08/02 04:02:47;;;;;;;1.70;1.60;;;15.00;99.90;;;;;;5006621;28;20746;-76
2021/08/02 04:05:12;;;;;;;1.73;1.63;;;15.00;99.90;;;;;;5022066;28;20934;-75
2021/08/02 04:07:40;;;;;;;1.40;1.30;;;15.00;99.90;;;;;;5019517;28;20399;-75
2021/08/02 04:10:06;;;;;;;1.30;1.30;;;15.10;99.90;;;;;;5023319;28;20390;-77
2021/08/02 04:12:32;;;;;;;1.88;1.65;;;15.10;99.90;;;;;;5006367;28;20538;-76
2021/08/02 04:14:58;;;;;;;1.38;1.35;;;15.20;99.90;;;;;;5022306;28;20470;-75
2021/08/02 04:17:23;;;;;;;1.70;1.60;;;15.20;99.90;;;;;;5005500;28;20434;-75
2021/08/02 04:19:49;;;;;;;3.33;2.53;;;15.20;99.90;;;;;;5006231;28;20453;-76
2021/08/02 04:22:15;;;;;;;2.03;1.92;;;15.20;99.90;;;;;;5006420;28;20391;-75
2021/08/02 04:24:40;;;;;;;1.77;1.67;;;15.30;99.90;;;;;;4992188;28;20379;-76
2021/08/02 04:27:06;;;;;;;1.52;1.42;;;15.30;99.90;;;;;;5006089;28;20460;-76
2021/08/02 04:29:31;;;;;;;1.20;1.20;;;15.30;99.90;;;;;;5007277;28;20407;-76
2021/08/02 04:31:57;;;;;;;1.23;1.23;;;15.30;99.90;;;;;;5005678;28;20405;-76
2021/08/02 04:34:23;;;;;;;1.52;1.42;;;15.40;99.90;;;;;;5010098;28;20468;-76
2021/08/02 04:36:48;;;;;;;1.50;1.40;;;15.40;99.90;;;;;;5025748;28;20438;-76
2021/08/02 04:39:14;;;;;;;1.50;1.40;;;15.40;99.90;;;;;;5010682;28;20949;-76
2021/08/02 04:41:40;;;;;;;1.67;1.57;;;15.50;99.90;;;;;;5000701;28;20481;-76
2021/08/02 04:44:06;;;;;;;1.67;1.58;;;15.50;99.90;;;;;;5035956;28;20777;-76
2021/08/02 04:46:31;;;;;;;1.90;1.80;;;15.50;99.90;;;;;;4994746;28;20934;-76
2021/08/02 04:48:57;;;;;;;1.70;1.60;;;15.50;99.90;;;;;;5002000;28;20480;-76
2021/08/02 04:51:23;;;;;;;1.80;1.70;;;15.50;99.90;;;;;;5009951;28;20393;-76
2021/08/02 04:53:48;;;;;;;2.40;2.13;;;15.50;99.90;;;;;;5004110;28;20462;-76
2021/08/02 04:56:14;;;;;;;4.27;2.27;;;15.60;99.90;;;;;;4997733;28;20456;-75
2021/08/02 04:58:40;;;;;;;1.67;1.57;;;15.60;99.90;;;;;;5025683;28;21183;-76
2021/08/02 05:01:05;;;;;;;1.80;1.70;;;15.60;99.90;;;;;;5002699;28;20397;-75
2021/08/02 05:03:31;;;;;;;2.27;1.70;;;15.70;99.90;;;;;;5009887;28;20387;-77
2021/08/02 05:05:57;;;;;;;1.85;1.75;;;15.70;99.90;;;;;;5026265;28;20399;-75
2021/08/02 05:08:22;;;;;;;1.80;1.70;;;15.70;99.90;;;;;;5011247;28;20752;-76
2021/08/02 05:10:48;;;;;;;1.55;1.45;;;15.80;99.90;;;;;;4997067;28;20430;-76
2021/08/02 05:13:14;;;;;;;2.00;1.90;;;15.70;99.90;;;;;;5009736;28;20470;-76
2021/08/02 05:15:40;;;;;;;1.50;1.40;;;15.70;99.90;;;;;;5013439;28;20524;-76
2021/08/02 05:18:06;;;;;;;1.75;1.65;;;15.80;99.90;;;;;;5005453;28;20477;-76
2021/08/02 05:20:32;;;;;;;1.90;1.80;;;15.80;99.90;;;;;;5016165;28;20411;-76
2021/08/02 05:22:58;;;;;;;1.63;1.53;;;15.90;99.90;;;;;;5058793;28;20377;-76
2021/08/02 05:25:23;;;;;;;1.90;1.80;;;15.90;99.90;;;;;;5028110;28;20669;-76
2021/08/02 05:27:50;;;;;;;1.77;1.55;;;15.90;99.90;;;;;;5008875;28;20503;-75
2021/08/02 05:30:16;;;;;;;1.98;1.88;;;15.90;99.90;;;;;;5008827;28;20391;-76
2021/08/02 05:32:42;;;;;;;2.05;1.88;;;16.00;99.90;;;;;;5042785;28;20440;-75
2021/08/02 05:35:08;;;;;;;2.50;2.30;;;15.90;99.90;;;;;;5011718;28;20393;-76
2021/08/02 05:37:34;;;;;;;2.00;1.90;;;16.00;99.90;;;;;;5012899;28;21174;-76
2021/08/02 05:40:00;;;;;;;1.70;1.60;;;16.00;99.90;;;;;;5007222;28;20521;-76
2021/08/02 05:42:26;;;;;;;1.85;1.75;;;16.00;99.90;;;;;;5006983;28;20487;-76
2021/08/02 05:44:51;;;;;;;1.95;1.85;;;16.10;99.90;;;;;;5022656;28;20886;-75
2021/08/02 05:47:17;;;;;;;2.38;1.95;;;16.20;99.90;;;;;;5014375;28;20617;-76
2021/08/02 05:49:42;;;;;;;1.47;1.43;;;16.30;99.90;;;;;;5005694;28;20391;-75
2021/08/02 05:52:08;;;;;;;1.80;1.70;;;16.40;99.90;;;;;;5007922;28;21099;-77
2021/08/02 05:54:34;;;;;;;1.77;1.67;;;16.40;99.90;;;;;;5009922;28;20881;-75
2021/08/02 05:57:00;;;;;;;1.60;1.50;;;16.40;99.90;;;;;;5025015;28;20906;-76
2021/08/02 05:59:26;;;;;;;2.50;2.30;;;16.50;99.90;;;;;;4998965;28;20964;-76
2021/08/02 06:01:52;;;;;;;1.70;1.60;;;16.50;99.90;;;;;;5013130;28;20392;-76
2021/08/02 06:04:17;;;;;;;2.00;1.90;;;16.50;99.90;;;;;;5006783;28;20491;-76
2021/08/02 06:06:43;;;;;;;1.90;1.80;;;16.60;99.90;;;;;;5026341;28;20391;-76
2021/08/02 06:09:11;;;;;;;1.63;1.52;;;16.70;99.90;;;;;;4997050;28;20400;-76
2021/08/02 06:11:37;;;;;;;1.65;1.55;;;16.80;99.90;;;;;;5032996;28;20395;-77
2021/08/02 06:14:03;;;;;;;1.58;1.48;;;16.90;99.90;;;;;;5006632;28;20400;-77
2021/08/02 06:16:28;;;;;;;1.60;1.50;;;17.10;99.90;;;;;;5021883;28;20470;-76
2021/08/02 06:18:54;;;;;;;1.50;1.40;;;17.20;99.90;;;;;;5004369;28;20393;-76
2021/08/02 06:21:19;;;;;;;1.20;1.20;;;17.20;99.90;;;;;;5000815;28;20405;-75
2021/08/02 06:23:45;;;;;;;1.52;1.42;;;17.30;99.90;;;;;;5024708;28;20519;-76
2021/08/02 06:26:11;;;;;;;1.40;1.30;;;17.40;99.90;;;;;;5014557;28;20418;-76
2021/08/02 06:28:36;;;;;;;1.50;1.40;;;17.50;99.90;;;;;;5008569;28;20398;-76
2021/08/02 06:31:02;;;;;;;1.13;1.13;;;17.50;99.90;;;;;;5005132;28;21000;-76
2021/08/02 06:33:29;;;;;;;1.50;1.40;;;17.60;99.90;;;;;;5027539;28;20808;-76
2021/08/02 06:35:54;;;;;;;1.48;1.40;;;17.70;99.90;;;;;;4976956;28;20432;-76
2021/08/02 06:38:20;;;;;;;1.60;1.20;;;17.90;99.90;;;;;;5008382;28;20766;-76
2021/08/02 06:40:46;;;;;;;1.25;1.23;;;17.90;99.90;;;;;;5008446;28;20468;-76
2021/08/02 06:43:14;;;;;;;1.60;1.38;;;17.90;99.90;;;;;;5025963;28;20464;-76
2021/08/02 06:45:41;;;;;;;2.33;1.33;;;17.90;99.90;;;;;;5008213;28;20407;-76
2021/08/02 06:48:06;;;;;;;1.37;1.27;;;17.80;99.90;;;;;;5009977;28;20383;-76
2021/08/02 06:50:32;;;;;;;1.25;1.23;;;17.80;99.90;;;;;;5009844;28;20968;-76
2021/08/02 06:52:58;;;;;;;1.10;1.10;;;17.80;99.90;;;;;;5012079;28;20458;-76
2021/08/02 06:55:24;;;;;;;1.10;1.10;;;17.80;99.90;;;;;;5017330;28;20401;-76
2021/08/02 06:57:49;;;;;;;1.20;1.20;;;17.90;99.90;;;;;;5006767;28;21081;-76
2021/08/02 07:00:15;;;;;;;1.70;1.60;;;18.00;99.90;;;;;;5025971;28;20405;-75
2021/08/02 07:02:41;;;;;;;1.60;1.40;;;18.10;99.90;;;;;;5005133;28;20427;-76
2021/08/02 07:05:07;;;;;;;1.40;1.30;;;18.30;99.90;;;;;;5005298;28;20391;-75
2021/08/02 07:07:33;;;;;;;1.48;1.38;;;18.50;99.90;;;;;;5007055;28;20434;-77
2021/08/02 07:09:58;;;;;;;1.40;1.30;;;18.60;99.90;;;;;;5009344;28;20445;-76
2021/08/02 07:12:24;;;;;;;1.47;1.37;;;18.50;99.90;;;;;;5025876;28;20399;-76
2021/08/02 07:14:50;;;;;;;1.20;1.20;;;18.40;99.90;;;;;;5019026;28;20396;-75
2021/08/02 07:17:16;;;;;;;1.50;1.40;;;18.50;99.90;;;;;;5005228;28;20445;-76
2021/08/02 07:19:42;;;;;;;1.30;1.20;;;18.60;99.90;;;;;;5026487;28;20387;-77
2021/08/02 07:22:07;;;;;;;1.48;1.38;;;18.70;99.90;;;;;;5026952;28;20395;-76
2021/08/02 07:24:33;;;;;;;1.25;1.23;;;18.80;99.90;;;;;;5013420;28;20831;-76
2021/08/02 07:26:59;;;;;;;1.50;1.40;;;18.90;99.90;;;;;;5005671;28;20406;-76
2021/08/02 07:29:24;;;;;;;1.38;1.27;;;19.00;99.90;;;;;;4996910;28;20397;-76
2021/08/02 07:31:50;;;;;;;1.40;1.30;;;19.20;99.90;;;;;;5001479;28;20396;-77
2021/08/02 07:34:16;;;;;;;1.05;1.05;;;19.30;99.90;;;;;;5007896;28;20408;-75
2021/08/02 07:36:41;;;;;;;1.33;1.23;;;19.50;99.90;;;;;;5007637;28;20405;-76
2021/08/02 07:39:07;;;;;;;1.53;1.23;;;19.60;99.90;;;;;;5009089;28;20391;-76
2021/08/02 07:41:33;;;;;;;1.58;1.27;;;19.60;99.90;;;;;;5024986;28;20399;-76
2021/08/02 07:44:00;;;;;;;1.20;1.10;;;19.70;99.90;;;;;;5000527;28;20404;-76
2021/08/02 07:46:26;;;;;;;2.22;1.23;;;19.80;99.90;;;;;;4992965;28;20474;-76
2021/08/02 07:48:52;;;;;;;1.90;1.30;;;20.00;99.90;;;;;;5025185;28;20894;-75
2021/08/02 07:51:20;;;;;;;1.20;1.20;;;20.00;99.90;;;;;;4999149;28;20444;-76
2021/08/02 07:53:46;;;;;;;1.13;1.02;;;19.80;99.90;;;;;;5004941;28;20403;-76
2021/08/02 07:56:12;;;;;;;1.17;1.13;;;19.80;99.90;;;;;;5007460;28;20418;-76
2021/08/02 07:58:38;;;;;;;1.08;1.08;;;19.80;99.90;;;;;;4996726;28;20387;-76
2021/08/02 08:01:03;;;;;;;1.00;1.00;;;19.90;99.90;;;;;;5011108;28;20471;-75
2021/08/02 08:03:29;;;;;;;1.20;1.10;;;20.00;99.90;;;;;;4993737;28;20478;-76
2021/08/02 08:05:55;;;;;;;1.65;1.10;;;20.10;99.90;;;;;;5004238;28;20404;-76
2021/08/02 08:08:21;;;;;;;0.90;0.90;;;20.10;99.90;;;;;;5009599;28;20827;-76
2021/08/02 08:10:47;;;;;;;1.00;1.00;;;20.10;99.90;;;;;;5008633;28;20403;-76
2021/08/02 08:13:13;;;;;;;1.00;1.00;;;20.10;99.90;;;;;;5008747;28;20493;-76
2021/08/02 08:15:38;;;;;;;1.13;1.07;;;20.20;99.90;;;;;;5023937;28;20407;-76
2021/08/02 08:18:04;;;;;;;1.10;1.10;;;20.30;99.90;;;;;;5032374;28;20449;-76
2021/08/02 08:20:29;;;;;;;0.93;0.93;;;20.30;99.90;;;;;;5003488;28;20467;-76
2021/08/02 08:22:55;;;;;;;1.30;1.20;;;20.40;99.90;;;;;;5008519;28;20516;-75
2021/08/02 08:25:21;;;;;;;0.90;0.90;;;20.50;99.90;;;;;;5021757;28;20403;-76
2021/08/02 08:27:47;;;;;;;1.40;1.20;;;20.50;99.90;;;;;;5006963;28;20395;-76
2021/08/02 08:30:13;;;;;;;1.40;1.30;;;20.40;99.90;;;;;;5001547;28;20412;-76
2021/08/02 08:32:39;;;;;;;1.00;1.00;;;20.30;99.90;;;;;;5008809;28;20762;-77
2021/08/02 08:35:05;;;;;;;1.03;1.03;;;20.10;99.90;;;;;;5023952;28;20393;-76
2021/08/02 08:37:31;;;;;;;1.30;1.20;;;20.10;99.90;;;;;;5007714;28;20750;-76
2021/08/02 08:39:56;;;;;;;1.27;1.20;;;19.90;99.90;;;;;;5002704;28;20384;-76
2021/08/02 08:42:22;;;;;;;0.90;0.90;;;19.90;99.90;;;;;;5020001;28;20516;-76
2021/08/02 08:44:48;;;;;;;1.13;1.03;;;20.00;99.90;;;;;;5030788;28;20397;-76
2021/08/02 08:47:14;;;;;;;3.25;1.10;;;20.10;99.90;;;;;;5026873;28;20398;-76
2021/08/02 08:49:40;;;;;;;1.17;1.17;;;20.20;99.90;;;;;;5036310;28;20393;-76
2021/08/02 08:52:06;;;;;;;1.20;1.20;;;20.20;99.90;;;;;;5010036;28;20387;-76
2021/08/02 08:54:32;;;;;;;1.00;1.00;;;20.20;99.90;;;;;;4990998;28;20398;-75
2021/08/02 08:56:58;;;;;;;1.88;1.00;;;20.00;99.90;;;;;;5013842;28;20911;-76
2021/08/02 08:59:24;;;;;;;0.80;0.80;;;19.90;99.90;;;;;;5001139;28;20420;-76
2021/08/02 09:02:00;;;;;;;0.90;0.90;;;19.80;99.90;;;;;;5002844;28;20397;-75
2021/08/02 09:04:30;;;;;;;1.50;1.00;;;19.80;99.90;;;;;;5023986;28;20477;-76
2021/08/02 09:06:58;;;;;;;1.35;1.25;;;19.90;99.90;;;;;;5010451;28;20537;-76
2021/08/02 09:09:35;;;;;;;1.00;1.00;;;20.10;99.90;;;;;;5016001;28;20420;-75
2021/08/02 09:12:10;;;;;;;1.00;1.00;;;20.50;99.90;;;;;;5003042;28;20931;-76
2021/08/02 09:14:36;;;;;;;1.00;1.00;;;20.80;99.90;;;;;;5005227;28;20385;-76
2021/08/02 09:17:02;;;;;;;4.95;1.20;;;21.20;99.90;;;;;;5007504;28;20970;-76
2021/08/02 09:19:43;;;;;;;1.20;1.10;;;21.30;99.90;;;;;;4995486;28;20434;-77
2021/08/02 09:22:08;;;;;;;3.60;1.00;;;21.20;99.90;;;;;;5011264;28;20449;-76
2021/08/02 09:24:34;;;;;;;1.15;1.10;;;21.20;99.90;;;;;;4995152;28;20937;-76
2021/08/02 09:27:00;;;;;;;1.10;1.10;;;21.30;99.90;;;;;;5011127;28;20403;-76
2021/08/02 09:29:30;;;;;;;1.10;1.10;;;21.70;99.90;;;;;;4994124;28;20498;-76
2021/08/02 09:31:56;;;;;;;1.02;1.02;;;22.10;99.90;;;;;;5009686;28;21110;-77
2021/08/02 09:34:22;;;;;;;2.08;1.08;;;22.40;99.90;;;;;;4995239;28;20490;-76
2021/08/02 09:36:55;;;;;;;0.80;0.80;;;22.40;99.90;;;;;;5013592;28;20454;-77
2021/08/02 09:39:20;;;;;;;1.20;1.10;;;22.30;99.90;;;;;;5031260;28;20486;-76
2021/08/02 09:41:46;;;;;;;1.00;1.00;;;22.30;99.90;;;;;;4999203;28;21888;-76
2021/08/02 09:44:18;;;;;;;1.23;1.13;;;22.30;99.90;;;;;;5019100;28;20417;-76
2021/08/02 09:46:59;;;;;;;0.90;0.90;;;22.60;99.90;;;;;;5043833;28;20893;-77
2021/08/02 09:49:26;;;;;;;1.30;1.20;;;22.90;99.90;;;;;;5008749;28;20784;-76
2021/08/02 09:51:52;;;;;;;0.90;0.90;;;23.40;99.90;;;;;;5008124;28;20490;-76
2021/08/02 09:54:28;;;;;;;0.90;0.90;;;23.60;99.90;;;;;;5007291;28;20405;-76
2021/08/02 09:56:54;;;;;;;1.00;1.00;;;23.50;99.90;;;;;;5007957;28;20423;-77
2021/08/02 09:59:20;;;;;;;1.20;1.00;;;23.40;99.90;;;;;;5009914;28;20755;-77
2021/08/02 10:01:49;;;;;;;1.20;1.20;;;23.40;99.90;;;;;;5010106;28;20965;-76
2021/08/02 10:04:15;;;;;;;0.70;0.70;;;23.30;99.90;;;;;;5004265;28;20919;-76
2021/08/02 10:06:41;;;;;;;0.85;0.85;;;23.30;99.90;;;;;;5003728;28;20391;-76
2021/08/02 10:09:07;;;;;;;0.90;0.90;;;23.50;99.90;;;;;;5008904;28;20383;-76
2021/08/02 10:11:33;;;;;;;0.80;0.80;;;23.80;99.90;;;;;;5006300;28;20480;-76
2021/08/02 10:13:59;;;;;;;0.98;0.90;;;24.20;99.90;;;;;;5009767;28;20997;-76
2021/08/02 10:16:28;;;;;;;1.57;0.90;;;24.70;99.90;;;;;;5010289;28;20449;-76
2021/08/02 10:19:03;;;;;;;0.88;0.88;;;24.90;99.90;;;;;;5025634;28;20406;-77
2021/08/02 10:21:43;;;;;;;0.73;0.73;;;25.00;99.90;;;;;;5018252;28;20434;-76
2021/08/02 10:24:10;;;;;;;0.80;0.80;;;24.80;99.90;;;;;;5035913;28;20484;-76
2021/08/02 10:26:35;;;;;;;1.17;1.08;;;24.30;99.90;;;;;;5006507;28;20409;-76
2021/08/02 10:29:03;;;;;;;0.60;0.60;;;24.40;99.90;;;;;;4991132;28;20409;-75
2021/08/02 10:31:29;;;;;;;1.13;1.02;;;24.30;99.90;;;;;;5009277;28;20441;-78
2021/08/02 10:33:55;;;;;;;0.82;0.82;;;24.60;99.90;;;;;;5031187;28;20397;-76
2021/08/02 10:36:21;;;;;;;0.70;0.70;;;24.70;99.90;;;;;;5015010;28;21125;-76
2021/08/02 10:38:51;;;;;;;0.70;0.70;;;24.70;99.90;;;;;;5005989;28;20397;-76
2021/08/02 10:41:30;;;;;;;0.70;0.70;;;24.50;99.90;;;;;;5019530;28;20401;-78
2021/08/02 10:43:57;;;;;;;0.80;0.80;;;24.10;99.90;;;;;;5007540;28;20807;-75
2021/08/02 10:46:27;;;;;;;0.80;0.80;;;24.00;99.90;;;;;;5018470;28;20393;-76
2021/08/02 10:49:10;;;;;;;0.63;0.63;;;24.20;99.90;;;;;;5021949;28;20483;-76
2021/08/02 10:52:05;;;;;;;0.75;0.75;;;24.60;99.90;;;;;;5022477;28;20396;-77
2021/08/02 10:54:38;;;;;;;0.70;0.70;;;25.10;99.90;;;;;;5014062;28;20412;-76
2021/08/02 10:57:11;;;;;;;0.90;0.90;;;25.10;99.40;;;;;;5009601;28;20569;-76
2021/08/02 10:59:40;;;;;;;0.80;0.80;;;25.10;99.10;;;;;;5026562;28;20391;-76
2021/08/02 11:02:09;;;;;;;3.80;0.80;;;25.10;99.90;;;;;;5014267;28;20401;-77
2021/08/02 11:04:39;;;;;;;0.63;0.63;;;24.80;99.90;;;;;;5025591;28;20473;-76
2021/08/02 11:07:04;;;;;;;0.65;0.65;;;25.20;99.90;;;;;;5005034;28;20487;-77
2021/08/02 11:09:31;;;;;;;1.35;0.90;;;25.60;99.40;;;;;;5056426;28;20912;-76
2021/08/02 11:12:06;;;;;;;0.70;0.70;;;25.60;98.10;;;;;;5014232;28;20811;-76
2021/08/02 11:14:32;;;;;;;1.70;1.00;;;26.00;96.60;;;;;;5030625;28;20849;-76
2021/08/02 11:16:58;;;;;;;0.57;0.57;;;26.20;96.90;;;;;;5027475;28;20587;-76
2021/08/02 11:19:30;;;;;;;0.70;0.70;;;26.40;95.90;;;;;;5020667;28;20393;-76
2021/08/02 11:21:56;;;;;;;0.60;0.60;;;26.60;95.50;;;;;;5000143;28;20396;-76
2021/08/02 11:24:22;;;;;;;0.68;0.68;;;26.40;94.20;;;;;;5031706;28;20401;-76
2021/08/02 11:26:55;;;;;;;0.60;0.60;;;26.80;96.70;;;;;;4986336;28;20438;-77
2021/08/02 11:29:20;;;;;;;0.60;0.60;;;27.20;93.50;;;;;;5005890;28;20861;-77
2021/08/02 11:32:09;;;;;;;0.70;0.70;;;27.40;93.80;;;;;;5017736;28;20525;-77
2021/08/02 11:34:35;;;;;;;0.73;0.73;;;27.60;92.40;;;;;;5009113;28;20391;-76
2021/08/02 11:37:16;;;;;;;0.98;0.80;;;27.70;91.40;;;;;;5008393;28;21327;-76
2021/08/02 11:39:47;;;;;;;0.73;0.73;;;27.70;90.70;;;;;;5008920;28;20403;-76
2021/08/02 11:42:16;;;;;;;1.90;0.67;;;27.70;89.90;;;;;;5025266;28;20470;-78
2021/08/02 11:44:44;;;;;;;0.50;0.50;;;27.90;88.80;;;;;;5005880;28;20480;-76
2021/08/02 11:47:11;;;;;;;0.80;0.80;;;28.20;89.30;;;;;;5001731;28;20403;-77
2021/08/02 11:49:40;;;;;;;0.63;0.63;;;28.20;90.10;;;;;;5025498;28;20759;-76
2021/08/02 11:52:06;;;;;;;0.70;0.70;;;28.00;89.00;;;;;;5029943;28;20390;-77
2021/08/02 11:54:32;;;;;;;0.60;0.60;;;27.90;88.50;;;;;;5023936;28;20473;-77
2021/08/02 11:56:58;;;;;;;0.93;0.60;;;27.80;81.20;;;;;;5023819;28;20820;-77
2021/08/02 11:59:25;;;;;;;1.20;0.83;;;27.90;80.60;;;;;;5010610;28;20394;-77
2021/08/02 12:01:52;;;;;;;0.60;0.60;;;28.00;83.30;;;;;;5000418;28;20789;-77
2021/08/02 12:04:18;;;;;;;0.80;0.80;;;28.20;83.20;;;;;;5022550;28;20742;-79
2021/08/02 12:06:49;;;;;;;0.50;0.50;;;28.50;86.10;;;;;;5026969;28;20403;-77
2021/08/02 12:09:14;;;;;;;0.60;0.60;;;28.70;79.10;;;;;;5025302;28;20401;-78
2021/08/02 12:11:41;;;;;;;0.57;0.57;;;28.70;83.50;;;;;;5025175;28;20462;-79
2021/08/02 12:14:07;;;;;;;0.50;0.50;;;28.70;78.20;;;;;;5026157;28;20425;-76
2021/08/02 12:16:35;;;;;;;0.60;0.60;;;28.50;74.80;;;;;;5024561;28;20406;-78
2021/08/02 12:19:14;;;;;;;0.70;0.70;;;27.80;75.10;;;;;;5017049;28;20412;-78
2021/08/02 12:21:39;;;;;;;0.50;0.50;;;27.30;77.70;;;;;;5003991;28;20399;-76
2021/08/02 12:24:07;;;;;;;0.80;0.80;;;27.60;80.70;;;;;;5026446;28;20442;-76
2021/08/02 12:26:35;;;;;;;0.73;0.73;;;28.20;80.50;;;;;;5008151;28;20474;-79
2021/08/02 12:29:00;;;;;;;0.60;0.60;;;28.50;77.50;;;;;;5008601;28;21020;-78
2021/08/02 12:31:27;;;;;;;0.70;0.70;;;28.90;78.00;;;;;;5024954;28;20399;-77
2021/08/02 12:33:53;;;;;;;0.80;0.80;;;28.90;76.70;;;;;;5008711;28;20981;-78
2021/08/02 12:36:19;;;;;;;0.60;0.60;;;28.80;77.60;;;;;;5008120;28;20410;-78
2021/08/02 12:38:49;;;;;;;0.68;0.68;;;29.00;73.10;;;;;;5017125;28;20517;-77
2021/08/02 12:41:15;;;;;;;0.55;0.55;;;28.70;71.20;;;;;;5008199;28;20494;-77
2021/08/02 12:43:42;;;;;;;0.70;0.70;;;28.00;72.60;;;;;;5008962;28;20469;-78
2021/08/02 12:46:09;;;;;;;0.63;0.63;;;28.20;77.70;;;;;;5008093;28;20391;-77
2021/08/02 12:48:35;;;;;;;0.60;0.60;;;28.40;74.90;;;;;;5008226;28;20427;-78
2021/08/02 12:51:01;;;;;;;2.60;0.70;;;28.30;74.80;;;;;;5014683;28;20650;-76